createdAt,value
2023-04-11T00:01:50.135Z,87.03
2023-04-11T00:04:21.142Z,87.07
2023-04-11T00:06:49.545Z,87.35
2023-04-11T00:09:18.841Z,87.49
2023-04-11T00:11:48.447Z,87.59
2023-04-11T00:14:19.894Z,87.72
2023-04-11T00:16:58.921Z,87.98
2023-04-11T00:19:33.646Z,88.25
2023-04-11T00:22:10.328Z,88.30
2023-04-11T00:24:41.656Z,87.99
2023-04-11T00:27:14.703Z,88.05
2023-04-11T00:29:43.860Z,88.27
2023-04-11T00:32:14.579Z,87.99
2023-04-11T00:34:47.521Z,88.12
2023-04-11T00:37:16.162Z,88.52
2023-04-11T00:39:52.227Z,89.03
2023-04-11T00:42:21.844Z,89.03
2023-04-11T00:44:58.668Z,88.79
2023-04-11T00:47:28.448Z,88.71
2023-04-11T00:50:12.768Z,88.93
2023-04-11T00:52:54.434Z,88.98
2023-04-11T00:55:25.908Z,88.91
2023-04-11T00:57:55.843Z,89.08
2023-04-11T01:00:29.854Z,88.90
2023-04-11T01:03:00.222Z,89.39
2023-04-11T01:05:32.862Z,89.43
2023-04-11T01:08:01.574Z,89.74
2023-04-11T01:10:33.329Z,89.91
2023-04-11T01:13:02.103Z,89.81
2023-04-11T01:15:40.959Z,89.51
2023-04-11T01:18:11.860Z,89.30
2023-04-11T01:20:42.792Z,89.49
2023-04-11T01:23:12.228Z,89.56
2023-04-11T01:25:41.040Z,89.60
2023-04-11T01:28:10.933Z,89.83
2023-04-11T01:30:40.354Z,89.88
2023-04-11T01:33:13.836Z,90.07
2023-04-11T01:35:42.561Z,90.73
2023-04-11T01:38:13.459Z,90.97
2023-04-11T01:40:42.863Z,91.07
2023-04-11T01:43:14.112Z,91.45
2023-04-11T01:45:44.535Z,91.23
2023-04-11T01:48:16.263Z,90.82
2023-04-11T01:50:47.344Z,90.50
2023-04-11T01:53:16.534Z,90.32
2023-04-11T01:55:49.215Z,89.77
2023-04-11T01:58:19.126Z,89.89
2023-04-11T02:00:47.408Z,90.40
2023-04-11T02:03:21.311Z,90.67
2023-04-11T02:05:50.201Z,91.21
2023-04-11T02:08:19.195Z,91.29
2023-04-11T02:10:47.576Z,91.20
2023-04-11T02:13:16.161Z,90.83
2023-04-11T02:15:49.463Z,90.79
2023-04-11T02:18:18.721Z,90.91
2023-04-11T02:20:48.060Z,90.63
2023-04-11T02:23:16.640Z,90.58
2023-04-11T02:25:47.218Z,90.53
2023-04-11T02:28:15.752Z,90.24
2023-04-11T02:30:44.170Z,90.28
2023-04-11T02:33:13.025Z,90.39
2023-04-11T02:35:42.866Z,90.31
2023-04-11T02:38:12.548Z,90.22
2023-04-11T02:40:41.859Z,90.22
2023-04-11T02:43:11.971Z,90.00
2023-04-11T02:45:41.578Z,89.94
2023-04-11T02:48:10.987Z,89.95
2023-04-11T02:50:44.390Z,90.08
2023-04-11T02:53:16.649Z,90.17
2023-04-11T02:55:52.195Z,90.38
2023-04-11T02:58:21.493Z,90.62
2023-04-11T03:00:51.008Z,90.58
2023-04-11T03:03:28.093Z,90.79
2023-04-11T03:05:57.393Z,91.06
2023-04-11T03:08:26.587Z,90.96
2023-04-11T03:10:57.016Z,90.91
2023-04-11T03:13:26.922Z,91.22
2023-04-11T03:15:57.137Z,91.10
2023-04-11T03:18:27.887Z,91.45
2023-04-11T03:20:57.060Z,91.98
2023-04-11T03:23:32.742Z,92.11
2023-04-11T03:26:03.349Z,92.55
2023-04-11T03:28:32.337Z,92.48
2023-04-11T03:31:03.624Z,92.50
2023-04-11T03:33:33.105Z,91.81
2023-04-11T03:36:02.674Z,91.64
2023-04-11T03:38:33.877Z,91.75
2023-04-11T03:41:02.305Z,91.54
2023-04-11T03:43:31.134Z,91.67
2023-04-11T03:46:00.947Z,91.67
2023-04-11T03:48:42.243Z,91.90
2023-04-11T03:51:11.142Z,91.81
2023-04-11T03:53:49.131Z,91.61
2023-04-11T03:56:47.303Z,91.57
2023-04-11T03:59:24.845Z,91.23
2023-04-11T04:01:58.237Z,90.02
2023-04-11T04:04:27.220Z,89.37
2023-04-11T04:07:10.592Z,88.96
2023-04-11T04:09:42.448Z,88.59
2023-04-11T04:12:11.439Z,88.33
2023-04-11T04:15:07.077Z,87.60
2023-04-11T04:17:37.107Z,87.00
2023-04-11T04:20:11.070Z,86.75
2023-04-11T04:22:42.124Z,86.34
2023-04-11T04:25:12.994Z,86.08
2023-04-11T04:27:58.362Z,85.76
2023-04-11T04:30:29.151Z,85.20
2023-04-11T04:33:12.648Z,84.97
2023-04-11T04:35:46.032Z,84.59
2023-04-11T04:38:31.090Z,84.40
2023-04-11T04:43:27.617Z,84.04
2023-04-11T04:46:17.060Z,83.79
2023-04-11T04:48:51.867Z,83.53
2023-04-11T04:51:22.521Z,83.38
2023-04-11T04:53:53.046Z,83.30
2023-04-11T04:56:38.282Z,82.87
2023-04-11T04:59:08.678Z,82.56
2023-04-11T05:01:40.377Z,82.01
2023-04-11T05:04:10.718Z,81.86
2023-04-11T05:06:51.223Z,81.88
2023-04-11T05:09:27.694Z,81.88
2023-04-11T05:12:01.702Z,81.67
2023-04-11T05:14:32.676Z,81.27
2023-04-11T05:17:02.472Z,80.85
2023-04-11T05:20:06.992Z,80.51
2023-04-11T05:22:37.047Z,79.92
2023-04-11T05:25:11.816Z,79.60
2023-04-11T05:27:41.671Z,79.40
2023-04-11T05:30:11.158Z,78.92
2023-04-11T05:32:54.372Z,78.34
2023-04-11T05:35:25.991Z,77.91
2023-04-11T05:38:04.124Z,77.62
2023-04-11T05:40:33.362Z,77.38
2023-04-11T05:43:01.953Z,77.00
2023-04-11T05:45:33.616Z,76.67
2023-04-11T05:48:02.218Z,76.15
2023-04-11T05:50:30.983Z,75.74
2023-04-11T05:53:00.284Z,75.32
2023-04-11T05:55:30.305Z,74.94
2023-04-11T05:57:59.929Z,74.58
2023-04-11T06:00:32.918Z,74.18
2023-04-11T06:03:10.876Z,74.11
2023-04-11T06:05:40.812Z,74.15
2023-04-11T06:08:16.344Z,73.30
2023-04-11T06:10:45.534Z,72.78
2023-04-11T06:13:18.213Z,72.42
2023-04-11T06:15:48.053Z,72.02
2023-04-11T06:18:23.217Z,71.63
2023-04-11T06:20:56.443Z,71.50
2023-04-11T06:23:25.432Z,71.51
2023-04-11T06:25:56.734Z,70.52
2023-04-11T06:28:25.264Z,70.05
2023-04-11T06:30:53.708Z,69.85
2023-04-11T06:33:23.993Z,69.59
2023-04-11T06:35:57.383Z,69.03
2023-04-11T06:38:26.721Z,69.10
2023-04-11T06:41:00.143Z,68.46
2023-04-11T06:43:32.234Z,67.91
2023-04-11T06:46:09.487Z,67.38
2023-04-11T06:48:39.334Z,65.92
2023-04-11T06:51:10.729Z,64.60
2023-04-11T06:53:42.493Z,63.75
2023-04-11T06:56:11.100Z,62.79
2023-04-11T06:58:39.836Z,62.66
2023-04-11T07:01:09.596Z,62.38
2023-04-11T07:03:41.185Z,61.69
2023-04-11T07:06:11.168Z,61.69
2023-04-11T07:08:42.437Z,60.77
2023-04-11T07:11:12.617Z,59.78
2023-04-11T07:13:42.888Z,58.50
2023-04-11T07:16:11.424Z,58.12
2023-04-11T07:18:42.695Z,57.07
2023-04-11T07:21:13.739Z,56.95
2023-04-11T07:31:32.371Z,52.82
2023-04-11T07:34:01.302Z,52.25
2023-04-11T07:36:32.016Z,51.95
2023-04-11T07:39:00.922Z,51.88
2023-04-11T07:41:33.072Z,51.50
2023-04-11T07:44:06.831Z,51.41
2023-04-11T07:46:35.887Z,51.55
2023-04-11T07:49:04.750Z,50.90
2023-04-11T07:51:33.539Z,49.09
2023-04-11T07:54:02.640Z,48.81
2023-04-11T07:56:31.131Z,47.01
2023-04-11T07:59:01.848Z,45.46
2023-04-11T08:01:30.139Z,46.65
2023-04-11T08:03:59.034Z,48.20
2023-04-11T08:06:29.420Z,48.64
2023-04-11T08:09:01.110Z,47.42
2023-04-11T08:11:30.712Z,47.29
2023-04-11T08:14:05.056Z,47.44
2023-04-11T08:16:35.921Z,46.71
2023-04-11T08:19:04.147Z,45.69
2023-04-11T08:21:38.175Z,45.65
2023-04-11T08:24:08.635Z,45.05
2023-04-11T08:26:37.990Z,44.05
2023-04-11T08:29:16.513Z,44.23
2023-04-11T08:31:45.907Z,44.65
2023-04-11T08:34:14.359Z,44.41
2023-04-11T08:36:43.047Z,43.97
2023-04-11T08:39:12.351Z,43.85
2023-04-11T08:41:43.684Z,43.65
2023-04-11T08:44:13.503Z,43.43
2023-04-11T08:46:42.807Z,41.13
2023-04-11T08:49:12.024Z,41.64
2023-04-11T08:51:42.625Z,42.34
2023-04-11T08:54:11.311Z,42.56
2023-04-11T08:56:43.412Z,42.26
2023-04-11T08:59:18.769Z,40.90
2023-04-11T09:01:50.048Z,40.96
2023-04-11T09:04:19.332Z,40.95
2023-04-11T09:06:58.448Z,40.26
2023-04-11T09:09:30.263Z,39.19
2023-04-11T09:12:01.337Z,38.86
2023-04-11T09:14:30.976Z,39.33
2023-04-11T09:17:00.540Z,41.58
2023-04-11T09:19:31.843Z,41.07
2023-04-11T09:22:05.108Z,41.68
2023-04-11T09:24:35.609Z,42.63
2023-04-11T09:27:08.923Z,42.40
2023-04-11T09:29:40.398Z,42.67
2023-04-11T09:32:27.782Z,42.22
2023-04-11T09:35:16.028Z,43.80
2023-04-11T09:37:49.698Z,44.76
2023-04-11T09:40:19.766Z,44.26
2023-04-11T09:42:57.561Z,42.10
2023-04-11T09:45:26.762Z,41.92
2023-04-11T09:47:58.182Z,43.40
2023-04-11T09:50:27.621Z,44.56
2023-04-11T09:52:58.501Z,45.55
2023-04-11T09:55:27.639Z,45.22
2023-04-11T09:57:57.872Z,46.02
2023-04-11T10:00:30.617Z,45.21
2023-04-11T10:03:00.012Z,45.76
2023-04-11T10:05:32.053Z,45.08
2023-04-11T10:08:19.939Z,43.22
2023-04-11T10:10:48.410Z,44.38
2023-04-11T10:13:51.895Z,45.16
2023-04-11T10:16:25.694Z,44.14
2023-04-11T10:18:56.455Z,43.44
2023-04-11T10:21:29.745Z,43.63
2023-04-11T10:24:21.951Z,42.14
2023-04-11T10:27:00.603Z,39.82
2023-04-11T10:29:29.762Z,39.77
2023-04-11T10:32:14.667Z,39.32
2023-04-11T10:34:50.179Z,39.64
2023-04-11T10:37:37.680Z,42.55
2023-04-11T10:40:11.212Z,39.80
2023-04-11T10:42:48.436Z,37.77
2023-04-11T10:45:24.786Z,38.51
2023-04-11T10:47:58.078Z,39.33
2023-04-11T10:50:26.985Z,39.60
2023-04-11T10:52:56.871Z,39.16
2023-04-11T10:55:50.099Z,38.84
2023-04-11T10:58:26.183Z,37.60
2023-04-11T11:01:00.764Z,38.07
2023-04-11T11:03:32.716Z,38.63
2023-04-11T11:06:03.026Z,38.85
2023-04-11T11:08:35.095Z,37.77
2023-04-11T11:11:08.696Z,35.67
2023-04-11T11:13:41.989Z,34.84
2023-04-11T11:16:14.294Z,34.68
2023-04-11T11:18:56.535Z,36.33
2023-04-11T11:21:28.420Z,37.66
2023-04-11T11:24:01.698Z,38.55
2023-04-11T11:26:39.361Z,38.50
2023-04-11T11:29:09.748Z,37.90
2023-04-11T11:31:46.021Z,38.30
2023-04-11T11:34:23.737Z,38.70
2023-04-11T11:36:57.005Z,39.52
2023-04-11T11:39:26.299Z,39.76
2023-04-11T11:41:58.080Z,40.14
2023-04-11T11:44:53.382Z,40.95
2023-04-11T11:47:41.885Z,41.83
2023-04-11T11:50:12.368Z,42.52
2023-04-11T11:52:43.827Z,43.60
2023-04-11T11:55:18.431Z,43.89
2023-04-11T11:57:50.856Z,43.83
2023-04-11T12:00:26.481Z,44.11
2023-04-11T12:02:56.252Z,43.44
2023-04-11T12:05:30.523Z,42.57
2023-04-11T12:08:05.475Z,42.10
2023-04-11T12:10:38.963Z,43.17
2023-04-11T12:13:23.949Z,44.03
2023-04-11T12:15:54.830Z,44.08
2023-04-11T12:18:25.456Z,44.12
2023-04-11T12:20:54.134Z,43.63
2023-04-11T12:23:23.159Z,43.48
2023-04-11T12:25:52.448Z,42.96
2023-04-11T12:28:21.647Z,42.29
2023-04-11T12:30:50.009Z,42.06
2023-04-11T12:33:19.105Z,41.68
2023-04-11T12:35:49.446Z,40.46
2023-04-11T12:38:26.340Z,40.20
2023-04-11T12:41:13.960Z,41.24
2023-04-11T12:43:44.384Z,41.64
2023-04-11T12:46:14.306Z,41.30
2023-04-11T12:48:43.786Z,41.55
2023-04-11T12:51:12.169Z,41.91
2023-04-11T12:53:44.439Z,42.19
2023-04-11T12:56:13.126Z,41.80
2023-04-11T12:58:42.218Z,41.49
2023-04-11T13:01:10.506Z,41.15
2023-04-11T13:03:41.837Z,40.29
2023-04-11T13:06:14.338Z,40.93
2023-04-11T13:08:43.314Z,41.35
2023-04-11T13:11:12.255Z,41.54
2023-04-11T13:13:42.680Z,41.83
2023-04-11T13:16:12.382Z,40.87
2023-04-11T13:18:41.461Z,40.69
2023-04-11T13:21:10.374Z,40.40
2023-04-11T13:23:38.861Z,40.94
2023-04-11T13:26:07.827Z,42.03
2023-04-11T13:28:39.305Z,43.20
2023-04-11T13:31:10.620Z,44.00
2023-04-11T13:33:50.208Z,44.15
2023-04-11T13:36:20.543Z,44.23
2023-04-11T13:38:57.374Z,44.36
2023-04-11T13:41:30.101Z,43.77
2023-04-11T13:43:58.907Z,44.34
2023-04-11T13:46:30.568Z,43.94
2023-04-11T13:49:00.581Z,44.02
2023-04-11T13:51:29.395Z,44.16
2023-04-11T13:54:10.148Z,44.18
2023-04-11T13:56:38.937Z,44.66
2023-04-11T13:59:08.846Z,45.28
2023-04-11T14:01:38.128Z,45.82
2023-04-11T14:04:07.657Z,45.32
2023-04-11T14:06:37.769Z,45.70
2023-04-11T14:09:06.568Z,46.16
2023-04-11T14:11:38.422Z,46.82
2023-04-11T14:14:06.819Z,46.42
2023-04-11T14:16:35.622Z,45.04
2023-04-11T14:19:04.181Z,44.76
2023-04-11T14:21:32.971Z,45.19
2023-04-11T14:24:02.535Z,45.53
2023-04-11T14:26:44.064Z,45.08
2023-04-11T14:29:13.770Z,45.14
2023-04-11T14:31:42.344Z,45.74
2023-04-11T14:34:11.878Z,46.47
2023-04-11T14:36:43.010Z,46.79
2023-04-11T14:39:12.829Z,47.88
2023-04-11T14:41:42.263Z,47.82
2023-04-11T14:44:10.795Z,47.96
2023-04-11T14:46:39.552Z,48.54
2023-04-11T14:49:07.978Z,49.13
2023-04-11T14:51:44.440Z,49.29
2023-04-11T14:54:13.014Z,48.25
2023-04-11T14:56:42.009Z,48.09
2023-04-11T14:59:22.331Z,48.90
2023-04-11T15:01:51.852Z,50.18
2023-04-11T15:04:21.279Z,50.91
2023-04-11T15:06:58.153Z,51.20
2023-04-11T15:09:28.071Z,51.52
2023-04-11T15:11:59.435Z,51.69
2023-04-11T15:14:29.667Z,52.29
2023-04-11T15:16:58.747Z,53.10
2023-04-11T15:19:28.660Z,53.48
2023-04-11T15:22:02.197Z,53.41
2023-04-11T15:24:34.734Z,53.65
2023-04-11T15:27:03.729Z,54.41
2023-04-11T15:29:45.515Z,54.53
2023-04-11T15:32:14.208Z,53.97
2023-04-11T15:34:46.580Z,53.23
2023-04-11T15:37:16.497Z,53.94
2023-04-11T15:39:46.202Z,54.00
2023-04-11T15:42:21.034Z,53.75
2023-04-11T15:44:50.138Z,53.95
2023-04-11T15:47:21.968Z,54.30
2023-04-11T15:49:51.562Z,54.33
2023-04-11T15:52:21.515Z,54.57
2023-04-11T15:54:54.485Z,54.85
2023-04-11T15:57:26.522Z,54.77
2023-04-11T15:59:56.628Z,54.95
2023-04-11T16:02:25.384Z,55.06
2023-04-11T16:04:55.590Z,55.44
2023-04-11T16:07:24.372Z,55.87
2023-04-11T16:09:55.921Z,56.67
2023-04-11T16:12:24.705Z,56.82
2023-04-11T16:14:54.624Z,57.07
2023-04-11T16:17:26.453Z,57.45
2023-04-11T16:19:57.126Z,57.47
2023-04-11T16:22:26.510Z,58.01
2023-04-11T16:24:56.513Z,58.16
2023-04-11T16:27:25.254Z,58.50
2023-04-11T16:30:01.431Z,58.81
2023-04-11T16:32:32.962Z,58.91
2023-04-11T16:35:01.572Z,59.03
2023-04-11T16:37:31.637Z,59.65
2023-04-11T16:40:00.574Z,60.21
2023-04-11T16:42:28.792Z,60.43
2023-04-11T16:44:57.171Z,60.99
2023-04-11T16:47:26.476Z,61.42
2023-04-11T16:49:55.249Z,61.91
2023-04-11T16:52:23.927Z,62.30
2023-04-11T16:54:55.618Z,62.60
2023-04-11T16:57:25.081Z,62.66
2023-04-11T17:02:14.807Z,62.87
2023-04-11T17:04:43.351Z,62.67
2023-04-11T17:07:14.990Z,62.84
2023-04-11T17:09:44.274Z,62.79
2023-04-11T17:12:12.570Z,62.59
2023-04-11T17:14:42.672Z,62.75
2023-04-11T17:17:11.483Z,62.83
2023-04-11T17:19:40.940Z,62.99
2023-04-11T17:22:09.487Z,63.33
2023-04-11T17:24:38.416Z,63.70
2023-04-11T17:27:09.431Z,63.84
2023-04-11T17:29:38.590Z,64.24
2023-04-11T17:32:08.567Z,64.48
2023-04-11T17:34:37.138Z,64.41
2023-04-11T17:37:07.051Z,64.36
2023-04-11T17:39:35.653Z,64.30
2023-04-11T17:42:06.695Z,63.92
2023-04-11T17:44:35.592Z,63.72
2023-04-11T17:47:03.745Z,63.39
2023-04-11T17:49:33.149Z,63.18
2023-04-11T17:52:02.079Z,62.55
2023-04-11T17:54:30.862Z,61.47
2023-04-11T17:56:59.142Z,60.55
2023-04-11T17:59:33.577Z,60.34
2023-04-11T18:02:02.222Z,60.16
2023-04-11T18:04:32.470Z,60.35
2023-04-11T18:07:03.245Z,60.28
2023-04-11T18:09:33.995Z,60.24
2023-04-11T18:12:02.660Z,60.31
2023-04-11T18:14:35.238Z,60.43
2023-04-11T18:17:05.464Z,60.66
2023-04-11T18:19:34.145Z,60.84
2023-04-11T18:22:02.554Z,60.51
2023-04-11T18:24:33.876Z,60.37
2023-04-11T18:27:02.561Z,60.25
2023-04-11T18:29:35.547Z,59.73
2023-04-11T18:32:06.799Z,59.92
2023-04-11T18:34:36.712Z,59.97
2023-04-11T18:37:05.212Z,60.02
2023-04-11T18:39:33.569Z,59.35
2023-04-11T18:42:04.781Z,59.18
2023-04-11T18:44:34.739Z,58.73
2023-04-11T18:47:05.116Z,59.04
2023-04-11T18:49:36.387Z,59.13
2023-04-11T18:52:04.797Z,59.15
2023-04-11T18:54:33.473Z,59.86
2023-04-11T18:57:04.681Z,60.25
2023-04-11T18:59:37.462Z,60.69
2023-04-11T19:02:12.599Z,60.80
2023-04-11T19:04:44.133Z,60.76
2023-04-11T19:07:14.205Z,61.04
2023-04-11T19:09:44.326Z,61.33
2023-04-11T19:12:16.394Z,61.58
2023-04-11T19:14:44.770Z,61.30
2023-04-11T19:17:13.354Z,60.90
2023-04-11T19:19:44.559Z,60.72
2023-04-11T19:22:13.391Z,60.26
2023-04-11T19:24:41.875Z,60.24
2023-04-11T19:27:10.180Z,60.63
2023-04-11T19:29:41.101Z,61.13
2023-04-11T19:32:09.847Z,61.62
2023-04-11T19:34:38.774Z,61.60
2023-04-11T19:37:08.380Z,61.64
2023-04-11T19:39:38.329Z,62.23
2023-04-11T19:42:09.046Z,62.51
2023-04-11T19:44:38.640Z,62.44
2023-04-11T19:47:07.119Z,62.26
2023-04-11T19:49:35.906Z,61.81
2023-04-11T19:52:04.694Z,61.83
2023-04-11T19:54:34.518Z,61.94
2023-04-11T19:57:03.000Z,62.05
2023-04-11T19:59:31.274Z,62.21
2023-04-11T20:02:01.915Z,62.07
2023-04-11T20:04:32.854Z,62.25
2023-04-11T20:07:03.582Z,62.54
2023-04-11T20:09:42.400Z,62.69
2023-04-11T20:12:13.253Z,62.94
2023-04-11T20:14:41.612Z,63.14
2023-04-11T20:17:12.657Z,63.29
2023-04-11T20:19:45.862Z,63.57
2023-04-11T20:22:18.792Z,63.77
2023-04-11T20:24:48.090Z,64.51
2023-04-11T20:27:16.686Z,65.02
2023-04-11T20:29:47.617Z,65.44
2023-04-11T20:32:16.643Z,66.08
2023-04-11T20:34:45.019Z,66.44
2023-04-11T20:37:18.385Z,66.79
2023-04-11T20:39:47.998Z,66.86
2023-04-11T20:42:20.784Z,66.27
2023-04-11T20:44:49.777Z,66.15
2023-04-11T20:47:18.121Z,65.97
2023-04-11T20:49:49.947Z,66.06
2023-04-11T20:52:18.560Z,66.38
2023-04-11T20:54:48.418Z,66.73
2023-04-11T20:57:16.700Z,66.95
2023-04-11T20:59:51.193Z,67.14
2023-04-11T21:02:20.644Z,67.08
2023-04-11T21:04:51.933Z,66.19
2023-04-11T21:07:24.620Z,65.00
2023-04-11T21:09:53.011Z,64.11
2023-04-11T21:12:21.480Z,64.25
2023-04-11T21:14:52.457Z,64.53
2023-04-11T21:17:21.923Z,64.19
2023-04-11T21:19:50.192Z,64.06
2023-04-11T21:22:21.936Z,63.74
2023-04-11T21:24:51.700Z,63.64
2023-04-11T21:27:20.079Z,62.99
2023-04-11T21:29:48.651Z,62.90
2023-04-11T21:32:18.461Z,62.79
2023-04-11T21:34:47.354Z,62.67
2023-04-11T21:37:16.141Z,62.69
2023-04-11T21:39:54.045Z,63.10
2023-04-11T21:42:22.486Z,62.48
2023-04-11T21:44:50.773Z,61.99
2023-04-11T21:47:19.134Z,61.93
2023-04-11T21:49:48.129Z,61.72
2023-04-11T21:52:18.654Z,61.03
2023-04-11T21:54:47.108Z,60.70
2023-04-11T21:57:15.465Z,60.70
2023-04-11T21:59:45.148Z,60.81
2023-04-11T22:02:14.700Z,61.09
2023-04-11T22:04:56.431Z,61.06
2023-04-11T22:07:47.712Z,60.82
2023-04-11T22:10:22.733Z,60.85
2023-04-11T22:12:54.706Z,61.32
2023-04-11T22:15:24.577Z,60.65
2023-04-11T22:17:54.945Z,60.58
2023-04-11T22:20:23.231Z,61.26
2023-04-11T22:22:52.463Z,61.62
2023-04-11T22:25:22.707Z,61.83
2023-04-11T22:27:55.009Z,62.86
2023-04-11T22:30:24.680Z,62.33
2023-04-11T22:33:02.776Z,62.53
2023-04-11T22:35:33.165Z,62.69
2023-04-11T22:38:01.776Z,63.21
2023-04-11T22:40:30.912Z,63.24
2023-04-11T22:42:59.792Z,64.26
2023-04-11T22:45:28.510Z,65.32
2023-04-11T22:48:01.137Z,66.32
2023-04-11T22:50:32.387Z,67.10
2023-04-11T22:53:02.330Z,67.63
2023-04-11T22:55:35.574Z,68.38
2023-04-11T22:58:03.929Z,68.84
2023-04-11T23:00:40.988Z,69.30
2023-04-11T23:03:10.339Z,70.42
2023-04-11T23:05:41.339Z,70.90
2023-04-11T23:08:10.563Z,71.08
2023-04-11T23:10:39.064Z,71.96
2023-04-11T23:13:14.485Z,72.83
2023-04-11T23:15:43.173Z,73.63
2023-04-11T23:18:11.341Z,74.59
2023-04-11T23:20:42.304Z,75.21
2023-04-11T23:23:10.508Z,76.03
2023-04-11T23:25:40.749Z,76.76
2023-04-11T23:28:09.037Z,77.31
2023-04-11T23:30:39.142Z,77.91
2023-04-11T23:33:10.476Z,78.51
2023-04-11T23:35:40.885Z,79.51
2023-04-11T23:38:10.684Z,80.01
2023-04-11T23:40:41.640Z,80.73
2023-04-11T23:43:12.285Z,81.12
2023-04-11T23:45:40.489Z,81.75
2023-04-11T23:48:11.098Z,82.25
2023-04-11T23:50:40.288Z,82.81
2023-04-11T23:53:08.507Z,83.38
2023-04-11T23:55:36.923Z,83.79
2023-04-11T23:58:05.284Z,84.28
